Time;durP1;ratioP1;P1;durP2;ratioP2;P2;SDS_P1;SDS_P2;PMS_P1;PMS_P2;Temp;Humidity;BMP_temperature;BMP_pressure;BME280_temperature;BME280_humidity;BME280_pressure;Samples;Min_cycle;Max_cycle;Signal;HPM_P1;HPM_P2
2021/07/25 00:00:27;;;;;;;97.28;65.43;;;;;;;;;;1489909;39;20484;-79
2021/07/25 00:01:28;;;;;;;98.32;65.68;;;;;;;;;;1490008;39;20530;-80
2021/07/25 00:02:32;;;;;;;106.78;65.60;;;;;;;;;;1489527;39;20485;-80
2021/07/25 00:03:34;;;;;;;96.22;65.03;;;;;;;;;;1488274;39;20466;-80
2021/07/25 00:04:36;;;;;;;86.22;63.13;;;;;;;;;;1489546;39;20431;-80
2021/07/25 00:05:41;;;;;;;89.10;63.33;;;;;;;;;;1486030;39;20455;-80
2021/07/25 00:06:43;;;;;;;93.47;63.25;;;;;;;;;;1485339;40;20423;-80
2021/07/25 00:07:44;;;;;;;85.32;61.45;;;;;;;;;;1486218;39;20435;-80
2021/07/25 00:08:46;;;;;;;86.32;61.63;;;;;;;;;;1485706;40;20584;-80
2021/07/25 00:09:47;;;;;;;93.47;64.68;;;;;;;;;;1485587;40;20443;-81
2021/07/25 00:10:49;;;;;;;95.25;65.38;;;;;;;;;;1485957;39;20399;-80
2021/07/25 00:11:51;;;;;;;95.45;65.57;;;;;;;;;;1485544;39;20454;-80
2021/07/25 00:12:53;;;;;;;96.80;65.45;;;;;;;;;;1486022;39;20460;-80
2021/07/25 00:13:57;;;;;;;101.47;65.47;;;;;;;;;;1489517;39;20413;-80
2021/07/25 00:14:59;;;;;;;94.80;64.78;;;;;;;;;;1489926;39;20436;-80
2021/07/25 00:16:00;;;;;;;89.25;64.25;;;;;;;;;;1489975;39;21166;-80
2021/07/25 00:17:11;;;;;;;100.70;65.63;;;;;;;;;;1489619;39;20435;-81
2021/07/25 00:18:13;;;;;;;100.43;65.50;;;;;;;;;;1489621;39;20409;-80
2021/07/25 00:19:15;;;;;;;94.40;65.78;;;;;;;;;;1489835;39;20385;-80
2021/07/25 00:20:17;;;;;;;86.68;62.60;;;;;;;;;;1489727;39;20464;-80
2021/07/25 00:21:19;;;;;;;88.63;63.72;;;;;;;;;;1487382;39;20403;-80
2021/07/25 00:22:20;;;;;;;94.57;63.88;;;;;;;;;;1481512;40;20419;-80
2021/07/25 00:23:25;;;;;;;93.95;65.57;;;;;;;;;;1481717;40;20404;-80
2021/07/25 00:24:32;;;;;;;91.68;63.33;;;;;;;;;;1481333;40;20447;-81
2021/07/25 00:25:35;;;;;;;89.82;63.33;;;;;;;;;;1485789;39;20415;-80
2021/07/25 00:26:47;;;;;;;86.70;62.05;;;;;;;;;;1485676;40;20407;-80
2021/07/25 00:27:55;;;;;;;96.53;63.55;;;;;;;;;;1486119;39;20454;-80
2021/07/25 00:28:57;;;;;;;90.13;63.10;;;;;;;;;;1486073;39;20469;-80
2021/07/25 00:29:58;;;;;;;91.22;62.20;;;;;;;;;;1485427;40;20515;-80
2021/07/25 00:31:05;;;;;;;96.50;64.05;;;;;;;;;;1485589;40;20399;-80
2021/07/25 00:32:08;;;;;;;91.03;64.82;;;;;;;;;;1481676;40;20404;-81
2021/07/25 00:33:10;;;;;;;91.70;64.95;;;;;;;;;;1481622;40;20784;-81
2021/07/25 00:34:12;;;;;;;91.70;63.92;;;;;;;;;;1485562;40;21330;-80
2021/07/25 00:35:14;;;;;;;92.22;63.65;;;;;;;;;;1485823;39;20479;-80
2021/07/25 00:36:17;;;;;;;93.20;63.17;;;;;;;;;;1485817;39;20507;-80
2021/07/25 00:37:20;;;;;;;99.20;65.57;;;;;;;;;;1485570;40;20419;-80
2021/07/25 00:38:22;;;;;;;88.45;60.08;;;;;;;;;;1486852;39;20520;-80
2021/07/25 00:39:24;;;;;;;81.75;59.03;;;;;;;;;;1489882;39;20452;-80
2021/07/25 00:40:42;;;;;;;85.63;60.60;;;;;;;;;;1489628;39;20420;-80
2021/07/25 00:41:44;;;;;;;79.07;59.38;;;;;;;;;;1486672;39;20414;-80
2021/07/25 00:42:45;;;;;;;83.18;59.05;;;;;;;;;;1485278;39;20601;-80
2021/07/25 00:43:48;;;;;;;84.53;60.42;;;;;;;;;;1489129;39;20404;-81
2021/07/25 00:44:50;;;;;;;87.00;60.45;;;;;;;;;;1489393;39;20428;-80
2021/07/25 00:45:52;;;;;;;75.13;55.85;;;;;;;;;;1489592;39;20880;-80
2021/07/25 00:46:59;;;;;;;84.07;60.72;;;;;;;;;;1489699;39;20424;-80
2021/07/25 00:48:01;;;;;;;82.55;57.38;;;;;;;;;;1489801;39;20389;-80
2021/07/25 00:49:03;;;;;;;77.55;57.33;;;;;;;;;;1489891;39;20490;-80
2021/07/25 00:50:07;;;;;;;77.50;56.25;;;;;;;;;;1489581;39;20425;-80
2021/07/25 00:51:09;;;;;;;83.97;59.78;;;;;;;;;;1490151;39;20421;-81
2021/07/25 00:52:10;;;;;;;85.60;60.15;;;;;;;;;;1490422;39;20434;-81
2021/07/25 00:53:12;;;;;;;92.18;61.35;;;;;;;;;;1485330;40;20410;-80
2021/07/25 00:54:14;;;;;;;90.22;63.08;;;;;;;;;;1485252;39;20941;-80
2021/07/25 00:55:16;;;;;;;81.45;58.72;;;;;;;;;;1490393;39;20409;-80
2021/07/25 00:56:17;;;;;;;85.78;60.15;;;;;;;;;;1489915;39;20523;-80
2021/07/25 00:57:19;;;;;;;88.95;60.45;;;;;;;;;;1489815;39;20563;-80
2021/07/25 00:58:20;;;;;;;90.10;63.05;;;;;;;;;;1489656;39;20460;-80
2021/07/25 00:59:22;;;;;;;86.95;60.25;;;;;;;;;;1489662;39;20481;-80
2021/07/25 01:00:24;;;;;;;89.30;61.53;;;;;;;;;;1490066;39;20393;-80
2021/07/25 01:01:25;;;;;;;88.30;62.50;;;;;;;;;;1489956;39;20444;-81
2021/07/25 01:02:32;;;;;;;86.50;60.63;;;;;;;;;;1490457;39;20423;-80
2021/07/25 01:03:48;;;;;;;85.50;60.15;;;;;;;;;;1489879;39;20385;-80
2021/07/25 01:04:56;;;;;;;88.63;60.22;;;;;;;;;;1490002;39;20497;-80
2021/07/25 01:06:10;;;;;;;87.57;59.67;;;;;;;;;;1489999;39;20405;-80
2021/07/25 01:07:40;;;;;;;81.63;58.13;;;;;;;;;;1489830;39;20378;-80
2021/07/25 01:08:45;;;;;;;87.18;60.42;;;;;;;;;;1485096;40;20870;-80
2021/07/25 01:10:07;;;;;;;88.75;61.00;;;;;;;;;;1484964;40;20524;-80
2021/07/25 01:11:12;;;;;;;102.47;64.72;;;;;;;;;;1485790;40;20399;-81
2021/07/25 01:12:22;;;;;;;96.10;62.78;;;;;;;;;;1485521;40;20426;-80
2021/07/25 01:13:28;;;;;;;91.38;62.60;;;;;;;;;;1485845;40;20391;-80
2021/07/25 01:14:34;;;;;;;88.53;61.55;;;;;;;;;;1485663;40;21138;-81
2021/07/25 01:15:39;;;;;;;83.53;59.20;;;;;;;;;;1486727;40;20410;-80
2021/07/25 01:16:41;;;;;;;89.47;60.88;;;;;;;;;;1488695;39;20414;-79
2021/07/25 01:17:43;;;;;;;87.32;60.67;;;;;;;;;;1489768;40;20411;-80
2021/07/25 01:18:46;;;;;;;101.03;63.08;;;;;;;;;;1489426;40;20422;-79
2021/07/25 01:19:48;;;;;;;83.60;59.13;;;;;;;;;;1489487;40;20422;-78
2021/07/25 01:20:51;;;;;;;91.03;60.90;;;;;;;;;;1489896;39;20693;-79
2021/07/25 01:21:52;;;;;;;89.97;58.60;;;;;;;;;;1489564;39;20442;-80
2021/07/25 01:22:56;;;;;;;90.20;61.72;;;;;;;;;;1485978;40;20426;-79
2021/07/25 01:23:59;;;;;;;92.78;62.17;;;;;;;;;;1486504;40;20399;-80
2021/07/25 01:25:02;;;;;;;88.23;58.83;;;;;;;;;;1486668;39;20512;-80
2021/07/25 01:26:05;;;;;;;90.13;59.72;;;;;;;;;;1485787;40;20403;-80
2021/07/25 01:27:08;;;;;;;88.97;58.08;;;;;;;;;;1485305;40;20664;-81
2021/07/25 01:28:16;;;;;;;84.47;57.47;;;;;;;;;;1485311;40;20514;-81
2021/07/25 01:29:18;;;;;;;89.32;59.08;;;;;;;;;;1485897;39;20411;-80
2021/07/25 01:30:22;;;;;;;89.73;59.50;;;;;;;;;;1485743;39;20895;-80
2021/07/25 01:31:30;;;;;;;87.32;59.88;;;;;;;;;;1485968;39;20407;-80
2021/07/25 01:32:33;;;;;;;82.70;57.40;;;;;;;;;;1486041;39;20421;-80
2021/07/25 01:33:36;;;;;;;79.32;56.60;;;;;;;;;;1481408;40;20454;-80
2021/07/25 01:34:38;;;;;;;77.13;56.22;;;;;;;;;;1481317;40;20461;-80
2021/07/25 01:35:44;;;;;;;76.28;55.30;;;;;;;;;;1485472;40;20510;-80
2021/07/25 01:36:46;;;;;;;80.68;56.67;;;;;;;;;;1485561;39;20569;-80
2021/07/25 01:37:47;;;;;;;83.97;56.08;;;;;;;;;;1485843;39;20422;-80
2021/07/25 01:38:52;;;;;;;84.22;56.25;;;;;;;;;;1485890;40;20425;-80
2021/07/25 01:39:54;;;;;;;86.72;57.83;;;;;;;;;;1486036;39;20800;-80
2021/07/25 01:41:01;;;;;;;80.40;55.67;;;;;;;;;;1490227;39;20838;-80
2021/07/25 01:42:03;;;;;;;80.20;53.78;;;;;;;;;;1489182;39;20890;-80
2021/07/25 01:43:07;;;;;;;83.45;57.33;;;;;;;;;;1486401;40;20499;-79
2021/07/25 01:44:08;;;;;;;75.57;53.97;;;;;;;;;;1486609;39;20450;-81
2021/07/25 01:45:11;;;;;;;72.25;52.63;;;;;;;;;;1486062;39;20511;-81
2021/07/25 01:46:13;;;;;;;67.20;52.42;;;;;;;;;;1481917;40;20412;-79
2021/07/25 01:47:14;;;;;;;71.05;52.65;;;;;;;;;;1481954;40;20412;-80
2021/07/25 01:48:16;;;;;;;72.43;51.50;;;;;;;;;;1486464;39;20395;-80
2021/07/25 01:49:17;;;;;;;73.00;52.70;;;;;;;;;;1486525;40;20442;-80
2021/07/25 01:50:19;;;;;;;66.00;51.80;;;;;;;;;;1481614;40;20948;-80
2021/07/25 01:51:21;;;;;;;72.75;54.92;;;;;;;;;;1481897;40;20401;-80
2021/07/25 01:52:22;;;;;;;69.88;52.67;;;;;;;;;;1481645;40;20416;-80
2021/07/25 01:53:25;;;;;;;64.78;49.85;;;;;;;;;;1481712;40;20789;-80
2021/07/25 01:54:26;;;;;;;69.63;52.72;;;;;;;;;;1486432;39;20493;-80
2021/07/25 01:55:28;;;;;;;75.10;53.97;;;;;;;;;;1486193;39;20612;-80
2021/07/25 01:56:29;;;;;;;86.60;57.90;;;;;;;;;;1487195;39;20891;-80
2021/07/25 01:57:31;;;;;;;76.30;55.92;;;;;;;;;;1489882;39;20428;-80
2021/07/25 01:58:32;;;;;;;75.70;55.50;;;;;;;;;;1490679;39;20409;-80
2021/07/25 01:59:34;;;;;;;75.95;55.40;;;;;;;;;;1490890;39;20435;-80
2021/07/25 02:00:37;;;;;;;75.70;55.35;;;;;;;;;;1491549;39;20411;-80
2021/07/25 02:01:38;;;;;;;74.93;53.30;;;;;;;;;;1488804;39;21664;-80
2021/07/25 02:02:40;;;;;;;81.22;54.53;;;;;;;;;;1486245;39;20743;-80
2021/07/25 02:03:42;;;;;;;77.78;56.53;;;;;;;;;;1486528;39;20566;-80
2021/07/25 02:04:44;;;;;;;78.90;55.63;;;;;;;;;;1486816;39;20445;-80
2021/07/25 02:05:45;;;;;;;74.82;53.08;;;;;;;;;;1486390;39;20418;-80
2021/07/25 02:06:47;;;;;;;74.13;53.17;;;;;;;;;;1486535;39;20410;-80
2021/07/25 02:07:52;;;;;;;81.75;53.30;;;;;;;;;;1481657;40;20411;-80
2021/07/25 02:08:54;;;;;;;76.55;52.90;;;;;;;;;;1482221;39;20403;-80
2021/07/25 02:09:55;;;;;;;76.57;53.15;;;;;;;;;;1490206;39;20462;-80
2021/07/25 02:10:57;;;;;;;76.88;52.83;;;;;;;;;;1490635;39;20412;-79
2021/07/25 02:11:58;;;;;;;77.07;53.50;;;;;;;;;;1485839;40;20501;-80
2021/07/25 02:13:00;;;;;;;70.55;50.60;;;;;;;;;;1481939;39;20809;-80
2021/07/25 02:14:02;;;;;;;65.75;50.15;;;;;;;;;;1489977;39;20428;-80
2021/07/25 02:15:04;;;;;;;70.35;49.28;;;;;;;;;;1486090;40;20399;-80
2021/07/25 02:16:06;;;;;;;64.43;50.03;;;;;;;;;;1486290;39;20406;-80
2021/07/25 02:17:09;;;;;;;60.47;49.08;;;;;;;;;;1490505;39;20397;-81
2021/07/25 02:18:11;;;;;;;63.20;48.88;;;;;;;;;;1490253;39;20751;-81
2021/07/25 02:19:13;;;;;;;63.30;47.63;;;;;;;;;;1490863;39;20428;-80
2021/07/25 02:20:14;;;;;;;62.22;47.58;;;;;;;;;;1486171;40;20438;-80
2021/07/25 02:21:16;;;;;;;61.88;47.22;;;;;;;;;;1485813;39;20442;-80
2021/07/25 02:22:18;;;;;;;57.35;45.17;;;;;;;;;;1490058;39;20421;-80
2021/07/25 02:23:20;;;;;;;61.90;46.75;;;;;;;;;;1490129;39;20810;-80
2021/07/25 02:24:22;;;;;;;64.35;47.83;;;;;;;;;;1490457;39;20451;-80
2021/07/25 02:25:24;;;;;;;69.45;48.90;;;;;;;;;;1490286;39;20416;-80
2021/07/25 02:26:25;;;;;;;65.35;49.33;;;;;;;;;;1490177;39;20427;-80
2021/07/25 02:27:27;;;;;;;66.35;48.90;;;;;;;;;;1490077;39;20512;-80
2021/07/25 02:28:29;;;;;;;63.90;47.55;;;;;;;;;;1489992;39;20939;-80
2021/07/25 02:29:30;;;;;;;59.38;45.13;;;;;;;;;;1490011;39;20456;-80
2021/07/25 02:30:32;;;;;;;56.58;44.13;;;;;;;;;;1485877;39;20429;-80
2021/07/25 02:31:33;;;;;;;69.80;49.35;;;;;;;;;;1489387;39;20734;-80
2021/07/25 02:32:35;;;;;;;67.10;47.28;;;;;;;;;;1489911;39;20465;-80
2021/07/25 02:33:37;;;;;;;59.55;45.78;;;;;;;;;;1490097;39;20441;-80
2021/07/25 02:34:40;;;;;;;60.00;46.25;;;;;;;;;;1490512;39;20829;-80
2021/07/25 02:35:42;;;;;;;56.85;44.78;;;;;;;;;;1490176;39;21119;-80
2021/07/25 02:36:43;;;;;;;61.33;45.67;;;;;;;;;;1490270;39;20515;-80
2021/07/25 02:37:45;;;;;;;63.80;45.95;;;;;;;;;;1490390;39;20473;-80
2021/07/25 02:38:47;;;;;;;57.75;43.42;;;;;;;;;;1486251;39;20395;-80
2021/07/25 02:39:48;;;;;;;59.33;44.83;;;;;;;;;;1488352;39;20425;-80
2021/07/25 02:40:50;;;;;;;57.50;43.60;;;;;;;;;;1486401;39;20403;-80
2021/07/25 02:41:51;;;;;;;57.35;45.50;;;;;;;;;;1486239;40;20451;-80
2021/07/25 02:42:53;;;;;;;60.85;44.78;;;;;;;;;;1485796;40;20506;-80
2021/07/25 02:43:55;;;;;;;65.53;47.15;;;;;;;;;;1481603;40;20738;-80
2021/07/25 02:44:56;;;;;;;63.88;46.50;;;;;;;;;;1485754;40;20839;-80
2021/07/25 02:45:58;;;;;;;63.20;46.20;;;;;;;;;;1481456;40;21192;-80
2021/07/25 02:47:00;;;;;;;72.13;47.80;;;;;;;;;;1481725;40;20409;-80
2021/07/25 02:48:01;;;;;;;63.25;45.60;;;;;;;;;;1485729;39;20514;-80
2021/07/25 02:49:04;;;;;;;65.72;47.05;;;;;;;;;;1485857;40;20444;-80
2021/07/25 02:50:07;;;;;;;68.63;48.08;;;;;;;;;;1485834;40;21111;-80
2021/07/25 02:51:09;;;;;;;71.75;47.30;;;;;;;;;;1481641;40;20409;-81
2021/07/25 02:52:10;;;;;;;71.63;49.30;;;;;;;;;;1485680;40;20963;-80
2021/07/25 02:53:12;;;;;;;64.95;47.78;;;;;;;;;;1486422;40;20504;-81
2021/07/25 02:54:14;;;;;;;72.60;49.08;;;;;;;;;;1485609;40;21110;-81
2021/07/25 02:55:15;;;;;;;68.35;47.90;;;;;;;;;;1481877;40;20409;-80
2021/07/25 02:56:17;;;;;;;70.75;48.67;;;;;;;;;;1485703;40;20552;-80
2021/07/25 02:57:18;;;;;;;71.57;49.95;;;;;;;;;;1486576;40;20434;-80
2021/07/25 02:58:20;;;;;;;69.70;49.00;;;;;;;;;;1481396;40;20544;-80
2021/07/25 02:59:22;;;;;;;71.93;48.85;;;;;;;;;;1483726;39;20488;-79
2021/07/25 03:00:24;;;;;;;68.90;49.38;;;;;;;;;;1490507;39;20401;-80
2021/07/25 03:01:26;;;;;;;70.22;49.63;;;;;;;;;;1489604;39;20771;-80
2021/07/25 03:02:28;;;;;;;66.72;48.53;;;;;;;;;;1489707;39;20525;-81
2021/07/25 03:03:30;;;;;;;69.80;48.45;;;;;;;;;;1490421;39;20413;-80
2021/07/25 03:04:32;;;;;;;66.30;46.38;;;;;;;;;;1489807;39;20484;-80
2021/07/25 03:05:33;;;;;;;69.13;49.20;;;;;;;;;;1485342;39;20419;-81
2021/07/25 03:06:35;;;;;;;66.82;47.88;;;;;;;;;;1485866;40;20407;-80
2021/07/25 03:07:37;;;;;;;75.63;50.13;;;;;;;;;;1486234;40;20402;-80
2021/07/25 03:08:38;;;;;;;69.15;48.78;;;;;;;;;;1485860;39;21137;-80
2021/07/25 03:09:40;;;;;;;74.38;49.60;;;;;;;;;;1486011;40;20521;-81
2021/07/25 03:10:41;;;;;;;69.45;48.83;;;;;;;;;;1485423;40;20513;-80
2021/07/25 03:11:43;;;;;;;74.03;49.72;;;;;;;;;;1485628;40;20463;-80
2021/07/25 03:12:45;;;;;;;74.50;49.30;;;;;;;;;;1485725;40;20423;-80
2021/07/25 03:13:46;;;;;;;70.65;49.92;;;;;;;;;;1487474;39;20531;-80
2021/07/25 03:14:48;;;;;;;70.75;47.80;;;;;;;;;;1490375;39;21076;-80
2021/07/25 03:15:49;;;;;;;70.97;49.17;;;;;;;;;;1490279;39;20473;-80
2021/07/25 03:16:51;;;;;;;59.08;44.35;;;;;;;;;;1489645;39;20787;-80
2021/07/25 03:17:53;;;;;;;60.42;45.72;;;;;;;;;;1485901;39;20501;-80
2021/07/25 03:18:54;;;;;;;60.80;44.97;;;;;;;;;;1485663;39;20422;-80
2021/07/25 03:19:56;;;;;;;66.30;46.72;;;;;;;;;;1484922;39;20433;-80
2021/07/25 03:20:59;;;;;;;66.68;47.00;;;;;;;;;;1489609;39;20464;-80
2021/07/25 03:22:04;;;;;;;67.30;46.90;;;;;;;;;;1490236;39;20780;-80
2021/07/25 03:23:05;;;;;;;67.70;46.65;;;;;;;;;;1489681;39;20416;-80
2021/07/25 03:24:07;;;;;;;62.55;44.92;;;;;;;;;;1489673;39;20421;-80
2021/07/25 03:25:09;;;;;;;65.30;46.03;;;;;;;;;;1490771;39;20517;-81
2021/07/25 03:26:11;;;;;;;64.03;46.47;;;;;;;;;;1490728;39;20417;-81
2021/07/25 03:27:12;;;;;;;57.65;41.70;;;;;;;;;;1490114;39;20433;-81
2021/07/25 03:28:14;;;;;;;63.53;44.22;;;;;;;;;;1490006;39;20464;-81
2021/07/25 03:29:16;;;;;;;55.17;41.10;;;;;;;;;;1481575;39;20415;-80
2021/07/25 03:30:17;;;;;;;61.20;42.92;;;;;;;;;;1485898;40;20529;-80
2021/07/25 03:31:19;;;;;;;54.28;41.33;;;;;;;;;;1485465;40;20533;-80
2021/07/25 03:32:20;;;;;;;54.05;39.88;;;;;;;;;;1481496;40;20504;-80
2021/07/25 03:33:23;;;;;;;50.67;39.72;;;;;;;;;;1481859;40;20404;-80
2021/07/25 03:34:29;;;;;;;51.83;40.15;;;;;;;;;;1481747;40;20404;-80
2021/07/25 03:35:31;;;;;;;50.35;39.28;;;;;;;;;;1485726;40;20535;-80
2021/07/25 03:36:32;;;;;;;54.05;39.47;;;;;;;;;;1485957;40;20557;-80
2021/07/25 03:37:34;;;;;;;53.65;40.95;;;;;;;;;;1485610;40;20466;-80
2021/07/25 03:38:36;;;;;;;55.28;39.35;;;;;;;;;;1481554;40;20866;-80
2021/07/25 03:39:37;;;;;;;55.80;39.75;;;;;;;;;;1485698;40;20410;-81
2021/07/25 03:40:42;;;;;;;50.22;38.42;;;;;;;;;;1486534;39;20472;-80
2021/07/25 03:41:43;;;;;;;44.60;37.53;;;;;;;;;;1486189;39;20488;-80
2021/07/25 03:42:45;;;;;;;48.22;38.10;;;;;;;;;;1486753;39;20486;-80
2021/07/25 03:43:47;;;;;;;47.95;37.30;;;;;;;;;;1489796;39;20811;-80
2021/07/25 03:44:48;;;;;;;42.72;35.30;;;;;;;;;;1489713;39;20737;-80
2021/07/25 03:45:50;;;;;;;42.77;35.30;;;;;;;;;;1490026;39;20401;-80
2021/07/25 03:46:52;;;;;;;44.92;36.78;;;;;;;;;;1490227;39;20409;-80
2021/07/25 03:47:54;;;;;;;45.50;36.83;;;;;;;;;;1490379;39;20896;-81
2021/07/25 03:48:56;;;;;;;45.60;36.63;;;;;;;;;;1490767;39;20495;-80
2021/07/25 03:49:59;;;;;;;45.45;36.60;;;;;;;;;;1490538;39;20445;-80
2021/07/25 03:51:00;;;;;;;44.22;36.70;;;;;;;;;;1490705;39;20671;-79
2021/07/25 03:52:02;;;;;;;47.85;37.10;;;;;;;;;;1492893;39;20424;-79
2021/07/25 03:53:06;;;;;;;52.22;37.90;;;;;;;;;;1494196;39;20880;-80
2021/07/25 03:54:08;;;;;;;46.72;36.58;;;;;;;;;;1494202;39;20437;-80
2021/07/25 03:55:10;;;;;;;51.50;37.65;;;;;;;;;;1494832;39;20400;-80
2021/07/25 03:56:12;;;;;;;47.83;36.83;;;;;;;;;;1493959;39;20471;-81
2021/07/25 03:57:13;;;;;;;47.57;36.73;;;;;;;;;;1493563;39;20472;-81
2021/07/25 03:58:15;;;;;;;50.58;37.38;;;;;;;;;;1494573;39;20493;-80
2021/07/25 03:59:16;;;;;;;50.75;37.33;;;;;;;;;;1491238;39;20441;-79
2021/07/25 04:00:18;;;;;;;47.67;36.53;;;;;;;;;;1486405;39;20547;-79
2021/07/25 04:01:19;;;;;;;48.63;36.20;;;;;;;;;;1486804;39;20426;-80
2021/07/25 04:02:21;;;;;;;46.27;36.57;;;;;;;;;;1490568;39;20491;-80
2021/07/25 04:03:23;;;;;;;49.28;36.88;;;;;;;;;;1489810;39;20407;-80
2021/07/25 04:04:25;;;;;;;53.95;38.10;;;;;;;;;;1490159;39;20401;-80
2021/07/25 04:05:27;;;;;;;54.10;38.22;;;;;;;;;;1481554;40;20450;-80
2021/07/25 04:06:30;;;;;;;48.45;38.28;;;;;;;;;;1481260;39;20420;-80
2021/07/25 04:07:31;;;;;;;51.22;38.55;;;;;;;;;;1485990;39;20814;-80
2021/07/25 04:08:33;;;;;;;54.75;38.67;;;;;;;;;;1485915;39;20453;-80
2021/07/25 04:09:35;;;;;;;54.67;38.85;;;;;;;;;;1486023;39;20410;-79
2021/07/25 04:10:44;;;;;;;54.67;39.88;;;;;;;;;;1486291;40;20413;-80
2021/07/25 04:11:53;;;;;;;48.08;36.72;;;;;;;;;;1486152;39;20449;-80
2021/07/25 04:12:55;;;;;;;49.83;37.00;;;;;;;;;;1486150;39;20926;-80
2021/07/25 04:13:56;;;;;;;50.95;37.95;;;;;;;;;;1485630;40;20447;-80
2021/07/25 04:14:59;;;;;;;52.20;37.05;;;;;;;;;;1485288;40;20820;-80
2021/07/25 04:16:00;;;;;;;51.80;37.58;;;;;;;;;;1486222;39;20991;-80
2021/07/25 04:17:02;;;;;;;54.60;38.22;;;;;;;;;;1476800;40;20417;-80
2021/07/25 04:18:05;;;;;;;49.03;36.72;;;;;;;;;;1477270;39;20406;-81
2021/07/25 04:19:06;;;;;;;46.53;36.03;;;;;;;;;;1489623;39;20421;-80
2021/07/25 04:20:08;;;;;;;47.38;36.42;;;;;;;;;;1492445;39;20396;-80
2021/07/25 04:21:10;;;;;;;50.88;35.55;;;;;;;;;;1494300;39;20676;-80
2021/07/25 04:22:12;;;;;;;51.28;35.05;;;;;;;;;;1494210;39;20425;-80
2021/07/25 04:23:13;;;;;;;49.85;35.03;;;;;;;;;;1493830;39;20474;-81
2021/07/25 04:24:15;;;;;;;44.22;33.63;;;;;;;;;;1485218;39;20961;-80
2021/07/25 04:25:16;;;;;;;44.67;32.15;;;;;;;;;;1489702;39;20501;-80
2021/07/25 04:26:18;;;;;;;44.25;33.00;;;;;;;;;;1494302;39;20804;-80
2021/07/25 04:27:20;;;;;;;43.30;32.23;;;;;;;;;;1494612;39;20631;-80
2021/07/25 04:28:22;;;;;;;39.53;31.08;;;;;;;;;;1489633;39;20797;-80
2021/07/25 04:29:24;;;;;;;44.20;31.98;;;;;;;;;;1489626;39;20413;-80
2021/07/25 04:30:26;;;;;;;43.40;32.63;;;;;;;;;;1489806;39;20482;-80
2021/07/25 04:31:28;;;;;;;39.42;30.88;;;;;;;;;;1490022;39;20413;-80
2021/07/25 04:32:30;;;;;;;45.05;32.13;;;;;;;;;;1494099;39;21019;-80
2021/07/25 04:33:33;;;;;;;38.25;30.70;;;;;;;;;;1489587;39;20463;-80
2021/07/25 04:34:35;;;;;;;39.13;30.40;;;;;;;;;;1481336;40;20567;-80
2021/07/25 04:35:38;;;;;;;39.53;30.70;;;;;;;;;;1481783;39;20436;-80
2021/07/25 04:36:43;;;;;;;40.67;30.95;;;;;;;;;;1485514;39;20422;-80
2021/07/25 04:37:57;;;;;;;40.70;31.23;;;;;;;;;;1490034;39;20570;-80
2021/07/25 04:39:00;;;;;;;38.83;30.70;;;;;;;;;;1494549;39;20524;-80
2021/07/25 04:40:02;;;;;;;43.55;30.80;;;;;;;;;;1494667;39;20418;-80
2021/07/25 04:41:08;;;;;;;35.65;28.92;;;;;;;;;;1489614;39;20853;-80
2021/07/25 04:42:10;;;;;;;36.03;28.27;;;;;;;;;;1485755;39;20395;-81
2021/07/25 04:43:15;;;;;;;35.40;27.95;;;;;;;;;;1487674;39;20866;-81
2021/07/25 04:44:35;;;;;;;37.15;27.75;;;;;;;;;;1490288;39;20441;-80
2021/07/25 04:45:57;;;;;;;32.35;25.35;;;;;;;;;;1490563;39;20587;-80
2021/07/25 04:47:03;;;;;;;32.65;25.77;;;;;;;;;;1490202;39;20393;-80
2021/07/25 04:48:28;;;;;;;29.75;24.30;;;;;;;;;;1490392;39;20382;-80
2021/07/25 04:49:40;;;;;;;28.75;23.40;;;;;;;;;;1481342;40;21095;-80
2021/07/25 04:50:48;;;;;;;28.37;23.73;;;;;;;;;;1479948;40;20768;-80
2021/07/25 04:51:52;;;;;;;27.42;23.25;;;;;;;;;;1486409;39;20403;-81
2021/07/25 04:53:01;;;;;;;25.65;21.88;;;;;;;;;;1490249;39;20779;-80
2021/07/25 04:54:11;;;;;;;23.23;20.70;;;;;;;;;;1490392;39;20452;-80
2021/07/25 04:55:13;;;;;;;21.67;18.77;;;;;;;;;;1490462;39;20393;-81
2021/07/25 04:56:16;;;;;;;23.30;19.63;;;;;;;;;;1489738;39;20409;-80
2021/07/25 04:57:19;;;;;;;22.20;19.25;;;;;;;;;;1489584;39;20784;-80
2021/07/25 04:58:26;;;;;;;24.30;19.77;;;;;;;;;;1490543;39;20413;-80
2021/07/25 04:59:31;;;;;;;24.50;18.58;;;;;;;;;;1490212;39;20452;-80
2021/07/25 05:00:38;;;;;;;21.88;18.23;;;;;;;;;;1485431;40;20421;-80
2021/07/25 05:01:45;;;;;;;19.88;17.17;;;;;;;;;;1485855;39;20480;-80
2021/07/25 05:02:48;;;;;;;20.80;17.73;;;;;;;;;;1490001;39;20432;-80
2021/07/25 05:03:50;;;;;;;20.65;16.77;;;;;;;;;;1485286;40;20375;-80
2021/07/25 05:04:52;;;;;;;18.67;16.45;;;;;;;;;;1487087;39;20507;-81
2021/07/25 05:05:54;;;;;;;20.15;16.90;;;;;;;;;;1489828;39;20428;-80
2021/07/25 05:06:56;;;;;;;19.90;17.10;;;;;;;;;;1489708;39;20983;-80
2021/07/25 05:08:02;;;;;;;21.63;17.08;;;;;;;;;;1489833;39;20423;-80
2021/07/25 05:09:05;;;;;;;21.73;17.10;;;;;;;;;;1494109;39;20515;-80
2021/07/25 05:10:08;;;;;;;21.27;16.40;;;;;;;;;;1494614;39;20407;-80
2021/07/25 05:11:21;;;;;;;21.13;16.38;;;;;;;;;;1494224;39;20399;-81
2021/07/25 05:12:35;;;;;;;17.80;15.90;;;;;;;;;;1485413;39;20475;-81
2021/07/25 05:13:38;;;;;;;17.67;14.98;;;;;;;;;;1486296;39;20740;-80
2021/07/25 05:14:48;;;;;;;19.13;15.23;;;;;;;;;;1490031;39;20790;-80
2021/07/25 05:15:50;;;;;;;16.63;14.25;;;;;;;;;;1485154;40;20835;-80
2021/07/25 05:17:22;;;;;;;16.90;13.68;;;;;;;;;;1485767;39;20411;-80
2021/07/25 05:18:39;;;;;;;16.17;13.55;;;;;;;;;;1490019;39;20684;-80
2021/07/25 05:19:48;;;;;;;19.90;13.80;;;;;;;;;;1489842;39;20416;-80
2021/07/25 05:21:14;;;;;;;15.23;13.50;;;;;;;;;;1490910;39;21088;-80
2021/07/25 05:23:00;;;;;;;14.93;13.32;;;;;;;;;;1490754;39;20432;-80
2021/07/25 05:24:02;;;;;;;15.55;12.05;;;;;;;;;;1481053;40;20474;-80
2021/07/25 05:25:05;;;;;;;14.07;12.48;;;;;;;;;;1488372;39;20879;-80
2021/07/25 05:26:10;;;;;;;15.88;13.07;;;;;;;;;;1490427;39;20484;-80
2021/07/25 05:27:21;;;;;;;15.83;13.00;;;;;;;;;;1490113;39;20530;-81
2021/07/25 05:28:22;;;;;;;13.88;12.43;;;;;;;;;;1490190;39;20409;-80
2021/07/25 05:29:26;;;;;;;17.05;12.02;;;;;;;;;;1485296;40;20482;-80
2021/07/25 05:30:29;;;;;;;13.65;11.85;;;;;;;;;;1481342;40;20452;-80
2021/07/25 05:31:33;;;;;;;15.48;12.77;;;;;;;;;;1485521;39;21089;-80
2021/07/25 05:32:35;;;;;;;15.57;12.75;;;;;;;;;;1490202;39;20424;-80
2021/07/25 05:33:36;;;;;;;14.55;12.32;;;;;;;;;;1477340;40;20446;-79
2021/07/25 05:34:38;;;;;;;16.20;11.73;;;;;;;;;;1476750;39;20458;-80
2021/07/25 05:35:39;;;;;;;14.50;11.93;;;;;;;;;;1485652;40;20414;-80
2021/07/25 05:36:41;;;;;;;15.38;12.30;;;;;;;;;;1481428;40;21124;-80
2021/07/25 05:37:43;;;;;;;14.98;11.93;;;;;;;;;;1485420;39;20541;-80
2021/07/25 05:38:44;;;;;;;14.05;11.52;;;;;;;;;;1493118;39;20447;-80
2021/07/25 05:39:46;;;;;;;13.13;11.73;;;;;;;;;;1489598;39;20393;-80
2021/07/25 05:40:48;;;;;;;13.82;12.10;;;;;;;;;;1489577;39;20730;-80
2021/07/25 05:41:49;;;;;;;13.10;11.82;;;;;;;;;;1489708;39;20448;-80
2021/07/25 05:42:51;;;;;;;13.70;11.82;;;;;;;;;;1485371;39;20570;-80
2021/07/25 05:43:52;;;;;;;14.50;11.77;;;;;;;;;;1485675;39;20536;-80
2021/07/25 05:44:54;;;;;;;14.65;12.95;;;;;;;;;;1485371;39;20419;-80
2021/07/25 05:45:55;;;;;;;13.85;12.10;;;;;;;;;;1485727;39;20407;-80
2021/07/25 05:46:58;;;;;;;14.30;12.40;;;;;;;;;;1489645;39;21080;-80
2021/07/25 05:48:00;;;;;;;13.38;11.98;;;;;;;;;;1494275;39;20395;-80
2021/07/25 05:49:02;;;;;;;14.38;12.80;;;;;;;;;;1493923;39;20417;-80
2021/07/25 05:50:05;;;;;;;18.00;12.43;;;;;;;;;;1494288;39;20442;-80
2021/07/25 05:51:06;;;;;;;15.57;12.95;;;;;;;;;;1494364;39;20407;-80
2021/07/25 05:52:08;;;;;;;14.50;12.48;;;;;;;;;;1485645;40;20410;-80
2021/07/25 05:53:09;;;;;;;14.80;12.52;;;;;;;;;;1481556;39;20408;-81
2021/07/25 05:54:11;;;;;;;15.20;12.73;;;;;;;;;;1481342;40;20396;-80
2021/07/25 05:55:13;;;;;;;17.27;13.38;;;;;;;;;;1485389;39;21056;-81
2021/07/25 05:56:14;;;;;;;14.85;12.52;;;;;;;;;;1490289;39;20409;-81
2021/07/25 05:57:16;;;;;;;14.75;12.60;;;;;;;;;;1490018;39;20909;-81
2021/07/25 05:58:17;;;;;;;15.75;13.27;;;;;;;;;;1485529;40;20584;-80
2021/07/25 05:59:19;;;;;;;14.30;12.80;;;;;;;;;;1485610;39;20796;-80
2021/07/25 06:00:21;;;;;;;17.02;13.15;;;;;;;;;;1485536;40;20798;-80
2021/07/25 06:01:23;;;;;;;15.15;13.55;;;;;;;;;;1481295;40;20421;-80
2021/07/25 06:02:24;;;;;;;15.75;13.90;;;;;;;;;;1481154;40;20427;-80
2021/07/25 06:03:27;;;;;;;14.77;13.15;;;;;;;;;;1481250;40;20710;-80
2021/07/25 06:04:29;;;;;;;14.73;13.20;;;;;;;;;;1484918;39;20538;-80
2021/07/25 06:05:34;;;;;;;15.93;13.60;;;;;;;;;;1494279;39;21055;-80
2021/07/25 06:06:36;;;;;;;14.82;13.07;;;;;;;;;;1494237;39;20649;-80
2021/07/25 06:07:39;;;;;;;16.33;13.50;;;;;;;;;;1494248;39;20414;-80
2021/07/25 06:08:41;;;;;;;17.48;13.77;;;;;;;;;;1489664;39;20405;-80